Time;durP1;ratioP1;P1;durP2;ratioP2;P2;SDS_P1;SDS_P2;PMS_P1;PMS_P2;Temp;Humidity;BMP_temperature;BMP_pressure;BME280_temperature;BME280_humidity;BME280_pressure;Samples;Min_cycle;Max_cycle;Signal;HPM_P1;HPM_P2
2024/02/12 00:01:10;;;;;;;19.10;15.07;;;16.10;71.60;;;;;;5000613;28;20625;-81
2024/02/12 00:03:40;;;;;;;19.25;15.57;;;16.10;71.40;;;;;;5001020;28;20692;-81
2024/02/12 00:06:07;;;;;;;17.98;14.57;;;16.10;71.50;;;;;;4999942;28;20038;-80
2024/02/12 00:08:33;;;;;;;18.58;15.35;;;16.10;71.20;;;;;;4997673;28;20038;-81
2024/02/12 00:10:59;;;;;;;16.35;13.90;;;16.10;71.50;;;;;;4998024;28;20049;-81
2024/02/12 00:13:24;;;;;;;18.10;14.85;;;16.10;71.40;;;;;;5001257;28;20568;-81
2024/02/12 00:15:50;;;;;;;17.75;14.45;;;16.10;71.40;;;;;;5001828;28;20058;-81
2024/02/12 00:18:15;;;;;;;17.63;14.20;;;16.10;71.80;;;;;;5000982;28;20038;-81
2024/02/12 00:20:41;;;;;;;17.15;14.88;;;16.10;71.40;;;;;;5000052;28;20510;-82
2024/02/12 00:23:07;;;;;;;18.33;14.70;;;16.10;71.50;;;;;;5000974;28;20053;-80
2024/02/12 00:25:33;;;;;;;15.43;13.05;;;16.10;71.50;;;;;;4996817;28;20946;-82
2024/02/12 00:27:59;;;;;;;17.80;14.23;;;16.10;71.40;;;;;;5014431;28;20052;-82
2024/02/12 00:30:24;;;;;;;17.83;13.80;;;16.10;71.70;;;;;;5011367;28;20049;-81
2024/02/12 00:32:50;;;;;;;15.77;12.85;;;16.10;71.60;;;;;;5014690;28;20058;-81
2024/02/12 00:35:15;;;;;;;13.95;12.45;;;16.10;71.50;;;;;;4995718;28;20037;-81
2024/02/12 00:37:41;;;;;;;15.93;13.25;;;16.10;71.90;;;;;;4999308;28;20045;-80
2024/02/12 00:40:09;;;;;;;13.85;12.35;;;16.10;71.60;;;;;;5010156;28;20112;-80
2024/02/12 00:42:41;;;;;;;14.43;12.15;;;16.10;71.80;;;;;;5010767;28;20085;-80
2024/02/12 00:45:08;;;;;;;13.45;11.98;;;16.10;71.80;;;;;;5000763;28;20132;-79
2024/02/12 00:47:34;;;;;;;15.75;13.60;;;16.00;71.70;;;;;;4999803;28;20050;-80
2024/02/12 00:50:02;;;;;;;15.48;12.30;;;16.10;71.90;;;;;;5001677;28;20053;-80
2024/02/12 00:52:27;;;;;;;15.20;12.00;;;16.10;71.60;;;;;;4998011;28;20127;-80
2024/02/12 00:54:53;;;;;;;13.82;11.98;;;16.00;71.70;;;;;;5015169;28;20050;-81
2024/02/12 00:57:22;;;;;;;14.02;12.25;;;16.00;71.70;;;;;;4968978;28;20450;-80
2024/02/12 00:59:48;;;;;;;13.95;12.35;;;16.00;71.70;;;;;;5016453;28;20069;-81
2024/02/12 01:02:14;;;;;;;13.45;12.05;;;16.00;71.70;;;;;;4995878;28;20049;-80
2024/02/12 01:04:40;;;;;;;14.27;11.73;;;16.00;71.70;;;;;;5015228;28;20069;-80
2024/02/12 01:07:05;;;;;;;11.95;10.75;;;16.00;71.70;;;;;;5019919;28;20050;-79
2024/02/12 01:09:31;;;;;;;13.80;11.40;;;16.00;72.00;;;;;;4987458;28;20108;-79
2024/02/12 01:11:58;;;;;;;11.85;10.60;;;16.00;72.10;;;;;;5014076;28;20043;-79
2024/02/12 01:14:23;;;;;;;13.10;11.75;;;16.00;71.80;;;;;;5002609;28;20054;-80
2024/02/12 01:16:49;;;;;;;10.77;9.68;;;16.00;71.80;;;;;;4996221;28;20049;-79
2024/02/12 01:19:15;;;;;;;11.70;10.50;;;16.00;71.70;;;;;;5014083;28;20054;-79
2024/02/12 01:21:41;;;;;;;12.55;10.88;;;16.00;71.80;;;;;;5005163;28;20651;-79
2024/02/12 01:24:06;;;;;;;11.27;9.82;;;16.00;71.60;;;;;;4999590;28;20499;-80
2024/02/12 01:26:36;;;;;;;11.93;9.95;;;16.00;71.70;;;;;;5013777;28;20411;-80
2024/02/12 01:29:03;;;;;;;11.70;9.85;;;16.00;72.80;;;;;;5001002;28;20057;-80
2024/02/12 01:31:29;;;;;;;11.15;10.05;;;16.00;71.70;;;;;;4999572;28;20050;-80
2024/02/12 01:33:54;;;;;;;11.50;9.40;;;16.00;71.60;;;;;;5001775;28;20038;-80
2024/02/12 01:36:21;;;;;;;9.50;8.63;;;16.00;71.60;;;;;;5004766;28;20057;-80
2024/02/12 01:38:46;;;;;;;10.70;9.52;;;15.90;71.50;;;;;;5001326;28;20042;-79
2024/02/12 01:41:12;;;;;;;9.95;8.95;;;15.90;71.50;;;;;;5020114;28;20100;-79
2024/02/12 01:43:40;;;;;;;9.98;9.00;;;15.90;72.30;;;;;;5021001;28;20069;-80
2024/02/12 01:46:05;;;;;;;9.88;8.98;;;15.90;71.50;;;;;;5004566;28;20034;-79
2024/02/12 01:48:32;;;;;;;10.20;9.07;;;15.90;71.40;;;;;;5017645;28;20050;-79
2024/02/12 01:51:06;;;;;;;10.38;9.13;;;15.90;71.20;;;;;;5016278;28;20062;-80
2024/02/12 01:53:35;;;;;;;10.00;9.00;;;15.90;71.60;;;;;;5021632;28;20084;-80
2024/02/12 01:56:01;;;;;;;9.57;8.60;;;15.90;71.30;;;;;;5002408;28;20042;-79
2024/02/12 01:58:29;;;;;;;8.80;8.00;;;15.90;71.60;;;;;;4989058;28;20084;-79
2024/02/12 02:00:54;;;;;;;9.35;8.45;;;15.90;71.80;;;;;;5006644;28;20035;-79
2024/02/12 02:03:21;;;;;;;9.55;8.63;;;15.90;71.30;;;;;;5021418;28;20048;-78
2024/02/12 02:05:47;;;;;;;9.10;8.32;;;15.90;71.20;;;;;;5006925;28;20092;-79
2024/02/12 02:08:13;;;;;;;9.25;8.38;;;15.90;71.20;;;;;;4998359;28;20050;-79
2024/02/12 02:10:38;;;;;;;9.05;8.15;;;15.90;71.20;;;;;;5007608;28;20037;-79
2024/02/12 02:13:06;;;;;;;9.07;8.18;;;15.80;71.20;;;;;;5005378;28;20133;-79
2024/02/12 02:15:35;;;;;;;9.40;8.35;;;15.80;71.20;;;;;;5006631;28;20108;-79
2024/02/12 02:18:03;;;;;;;8.57;7.78;;;15.80;71.20;;;;;;5006996;28;20060;-79
2024/02/12 02:20:29;;;;;;;7.32;6.70;;;15.80;71.20;;;;;;5016229;28;20049;-79
2024/02/12 02:22:55;;;;;;;8.05;7.38;;;15.90;71.20;;;;;;5005989;28;20081;-79
2024/02/12 02:25:20;;;;;;;7.22;6.63;;;15.80;71.50;;;;;;5016256;28;20062;-79
2024/02/12 02:27:46;;;;;;;7.32;6.72;;;15.80;71.40;;;;;;5007023;28;20046;-79
2024/02/12 02:30:12;;;;;;;7.70;6.82;;;15.80;71.20;;;;;;5003397;28;20042;-82
2024/02/12 02:32:39;;;;;;;7.55;6.85;;;15.80;71.20;;;;;;5003601;28;20046;-79
2024/02/12 02:35:05;;;;;;;7.00;6.38;;;15.80;71.50;;;;;;5004768;28;20516;-79
2024/02/12 02:37:31;;;;;;;7.45;6.53;;;15.80;71.20;;;;;;5004122;28;20044;-79
2024/02/12 02:39:57;;;;;;;7.18;6.47;;;15.80;71.20;;;;;;4989944;28;20034;-79
2024/02/12 02:42:22;;;;;;;7.28;6.68;;;15.80;71.20;;;;;;5003799;28;20062;-79
2024/02/12 02:44:48;;;;;;;5.97;5.57;;;15.80;71.20;;;;;;5000681;28;20065;-79
2024/02/12 02:47:14;;;;;;;8.00;6.07;;;15.80;71.20;;;;;;5002937;28;20034;-78
2024/02/12 02:49:43;;;;;;;6.70;6.10;;;15.80;72.40;;;;;;5000714;28;20161;-79
2024/02/12 02:52:08;;;;;;;6.45;5.55;;;15.80;71.20;;;;;;5005035;28;20042;-78
2024/02/12 02:54:34;;;;;;;5.75;5.35;;;15.80;71.30;;;;;;5004723;28;20054;-78
2024/02/12 02:57:00;;;;;;;6.05;5.50;;;15.80;71.20;;;;;;5002212;28;20618;-79
2024/02/12 02:59:25;;;;;;;6.93;6.35;;;15.80;71.20;;;;;;5001176;28;22153;-78
2024/02/12 03:01:51;;;;;;;6.40;5.90;;;15.80;71.20;;;;;;5000179;28;20112;-79
2024/02/12 03:04:17;;;;;;;6.05;5.50;;;15.80;71.20;;;;;;5001561;28;20081;-78
2024/02/12 03:06:43;;;;;;;5.72;5.22;;;15.80;71.30;;;;;;4984785;28;20042;-79
2024/02/12 03:09:10;;;;;;;5.53;5.03;;;15.80;71.20;;;;;;4989712;28;20038;-78
2024/02/12 03:11:37;;;;;;;6.03;5.57;;;15.80;71.20;;;;;;5001774;28;20046;-79
2024/02/12 03:14:03;;;;;;;6.13;5.63;;;15.80;71.10;;;;;;5019436;28;20096;-79
2024/02/12 03:16:29;;;;;;;5.38;4.97;;;15.70;71.10;;;;;;5016409;28;20066;-79
2024/02/12 03:18:55;;;;;;;5.57;5.07;;;15.70;71.10;;;;;;4985152;28;20053;-78
2024/02/12 03:21:22;;;;;;;5.65;5.15;;;15.70;71.10;;;;;;5031735;28;20046;-80
2024/02/12 03:23:47;;;;;;;4.88;4.57;;;15.70;71.10;;;;;;5002161;28;20057;-80
2024/02/12 03:26:14;;;;;;;5.10;4.80;;;15.70;71.10;;;;;;5005456;28;20065;-79
2024/02/12 03:28:39;;;;;;;5.13;4.72;;;15.70;71.10;;;;;;5004972;28;20137;-79
2024/02/12 03:31:05;;;;;;;5.10;4.70;;;15.70;71.10;;;;;;5001000;28;20472;-80
2024/02/12 03:33:31;;;;;;;4.97;4.57;;;15.70;71.60;;;;;;5005755;28;20046;-79
2024/02/12 03:35:57;;;;;;;5.10;4.70;;;15.70;71.10;;;;;;5006844;28;20042;-79
2024/02/12 03:38:25;;;;;;;5.32;4.93;;;15.70;71.10;;;;;;5020953;28;20050;-79
2024/02/12 03:40:54;;;;;;;4.97;4.57;;;15.70;71.10;;;;;;5005092;28;20508;-79
2024/02/12 03:43:24;;;;;;;5.25;4.85;;;15.70;71.20;;;;;;5002323;28;20045;-78
2024/02/12 03:45:55;;;;;;;5.45;5.05;;;15.70;71.20;;;;;;5005631;28;20671;-79
2024/02/12 04:02:03;;;;;;;4.47;4.07;;;15.60;71.10;;;;;;5006387;28;20428;-79
2024/02/12 04:04:30;;;;;;;4.47;4.18;;;15.70;71.20;;;;;;4999528;28;21466;-80
2024/02/12 04:06:56;;;;;;;4.32;4.00;;;15.60;71.30;;;;;;4988622;28;20050;-78
2024/02/12 04:09:22;;;;;;;4.78;4.40;;;15.60;71.40;;;;;;5004023;28;20129;-79
2024/02/12 04:11:47;;;;;;;4.60;4.28;;;15.60;71.30;;;;;;5015992;28;20137;-78
2024/02/12 04:14:13;;;;;;;4.28;3.88;;;15.60;71.30;;;;;;5003898;28;20099;-79
2024/02/12 04:16:46;;;;;;;4.55;4.15;;;15.60;71.10;;;;;;5019169;28;20500;-78
2024/02/12 04:19:11;;;;;;;4.68;4.35;;;15.70;71.20;;;;;;5010104;28;20089;-80
2024/02/12 04:21:37;;;;;;;5.28;3.95;;;15.60;71.20;;;;;;5005576;28;20038;-79
2024/02/12 04:24:04;;;;;;;3.85;3.65;;;15.60;71.20;;;;;;4972503;28;20034;-79
2024/02/12 04:26:37;;;;;;;4.00;3.70;;;15.60;71.10;;;;;;5004906;28;20141;-79
2024/02/12 04:29:05;;;;;;;4.10;3.80;;;15.60;71.40;;;;;;5004657;28;20050;-80
2024/02/12 04:31:35;;;;;;;4.10;3.72;;;15.60;71.30;;;;;;5003684;28;20050;-79
2024/02/12 04:34:01;;;;;;;4.10;3.80;;;15.60;71.10;;;;;;5004170;28;20112;-78
2024/02/12 04:36:26;;;;;;;3.97;3.67;;;15.60;71.30;;;;;;5018125;28;20045;-79
2024/02/12 04:38:52;;;;;;;3.83;3.53;;;15.60;71.50;;;;;;5001670;28;20057;-80
2024/02/12 04:41:19;;;;;;;4.00;3.70;;;15.60;71.30;;;;;;5015189;28;20450;-79
2024/02/12 04:43:46;;;;;;;3.67;3.28;;;15.60;71.40;;;;;;5012263;28;20077;-80
2024/02/12 04:46:11;;;;;;;3.83;3.58;;;15.60;71.10;;;;;;5002785;28;20045;-79
2024/02/12 04:48:37;;;;;;;4.10;3.70;;;15.60;71.10;;;;;;4987641;28;20115;-79
2024/02/12 04:51:03;;;;;;;4.03;3.72;;;15.60;71.30;;;;;;5004393;28;20034;-79
2024/02/12 04:53:29;;;;;;;3.63;3.42;;;15.60;71.40;;;;;;5003543;28;20053;-79
2024/02/12 04:55:55;;;;;;;3.58;3.28;;;15.60;71.30;;;;;;5019270;28;20412;-79
2024/02/12 04:58:22;;;;;;;3.72;3.40;;;15.60;71.50;;;;;;5002983;28;20050;-79
2024/02/12 05:00:48;;;;;;;3.80;3.58;;;15.60;71.30;;;;;;5019591;28;20038;-80
2024/02/12 05:03:15;;;;;;;3.42;3.22;;;15.60;71.40;;;;;;4999093;28;20046;-80
2024/02/12 05:05:41;;;;;;;3.30;3.00;;;15.60;71.20;;;;;;5015003;28;20082;-79
2024/02/12 05:08:07;;;;;;;3.40;3.20;;;15.60;71.20;;;;;;5015442;28;20052;-79
2024/02/12 05:10:33;;;;;;;3.38;3.17;;;15.60;71.10;;;;;;5018062;28;20129;-79
2024/02/12 05:12:59;;;;;;;3.58;3.33;;;15.60;71.10;;;;;;5003862;28;20043;-79
2024/02/12 05:15:25;;;;;;;3.72;3.53;;;15.60;71.90;;;;;;4995887;28;20093;-79
2024/02/12 05:18:14;;;;;;;3.13;2.92;;;15.60;71.40;;;;;;4970610;28;20049;-79
2024/02/12 05:23:24;;;;;;;3.10;2.90;;;15.60;71.40;;;;;;5013451;28;20072;-82
2024/02/12 05:25:50;;;;;;;3.67;2.90;;;15.60;71.40;;;;;;4968208;28;20049;-79
2024/02/12 05:28:15;;;;;;;2.97;2.78;;;15.60;71.40;;;;;;5012915;28;20050;-80
2024/02/12 05:30:41;;;;;;;2.85;2.65;;;15.60;71.30;;;;;;4986338;28;20157;-79
2024/02/12 05:33:08;;;;;;;3.35;3.15;;;15.60;71.30;;;;;;4988217;28;20061;-80
2024/02/12 05:35:35;;;;;;;3.42;3.22;;;15.50;71.10;;;;;;4999408;28;20125;-80
2024/02/12 05:38:01;;;;;;;3.08;2.88;;;15.60;71.20;;;;;;5015368;28;20511;-78
2024/02/12 05:40:26;;;;;;;3.00;2.80;;;15.60;71.30;;;;;;5013882;28;20062;-79
2024/02/12 05:42:52;;;;;;;2.78;2.58;;;15.50;71.30;;;;;;5000469;28;20574;-80
2024/02/12 05:45:18;;;;;;;2.88;2.67;;;15.50;71.30;;;;;;5005229;28;21641;-79
2024/02/12 05:47:44;;;;;;;2.60;2.40;;;15.50;71.60;;;;;;5016843;28;20161;-79
2024/02/12 05:50:11;;;;;;;3.10;2.90;;;15.50;71.30;;;;;;5003780;28;20144;-79
2024/02/12 05:52:39;;;;;;;3.45;2.65;;;15.50;71.20;;;;;;5015985;28;20069;-82
2024/02/12 05:55:06;;;;;;;2.78;2.58;;;15.50;71.30;;;;;;5000674;28;20042;-78
2024/02/12 05:57:31;;;;;;;2.35;2.25;;;15.50;71.40;;;;;;5010606;28;20046;-78
2024/02/12 05:59:57;;;;;;;2.80;2.60;;;15.50;71.30;;;;;;5017647;28;20089;-79
2024/02/12 06:02:22;;;;;;;3.30;3.05;;;15.50;71.40;;;;;;5017395;28;20519;-79
2024/02/12 06:04:48;;;;;;;2.83;2.63;;;15.50;71.30;;;;;;5017435;28;20128;-79
2024/02/12 06:07:13;;;;;;;2.60;2.40;;;15.50;71.30;;;;;;5000948;28;20080;-80
2024/02/12 06:09:39;;;;;;;2.35;2.25;;;15.50;71.30;;;;;;4969841;28;20050;-80
2024/02/12 06:12:07;;;;;;;2.63;2.42;;;15.50;71.40;;;;;;5012706;28;20516;-80
2024/02/12 06:14:33;;;;;;;2.88;2.67;;;15.50;71.30;;;;;;5003421;28;20069;-79
2024/02/12 06:16:59;;;;;;;2.92;2.72;;;15.50;71.30;;;;;;5012137;28;20046;-80
2024/02/12 06:19:25;;;;;;;2.40;2.25;;;15.50;71.30;;;;;;4999599;28;20069;-79
2024/02/12 06:21:51;;;;;;;2.53;2.42;;;15.50;71.30;;;;;;5000730;28;20504;-79
2024/02/12 06:24:17;;;;;;;3.75;2.55;;;15.50;71.40;;;;;;5000301;28;20092;-78
2024/02/12 06:26:42;;;;;;;2.20;2.10;;;15.50;71.40;;;;;;5019387;28;20424;-78
2024/02/12 06:29:08;;;;;;;2.38;2.20;;;15.50;71.30;;;;;;5006096;28;20535;-79
2024/02/12 06:31:41;;;;;;;2.70;2.50;;;15.50;71.40;;;;;;5004032;28;20044;-79
2024/02/12 06:34:06;;;;;;;2.40;2.20;;;15.50;71.40;;;;;;5003836;28;20121;-79
2024/02/12 06:36:32;;;;;;;2.30;2.20;;;15.50;71.40;;;;;;5021477;28;20054;-78
2024/02/12 06:38:57;;;;;;;2.63;2.53;;;15.50;71.50;;;;;;5003422;28;20050;-79
2024/02/12 06:41:24;;;;;;;2.40;2.30;;;15.50;71.40;;;;;;5000426;28;20189;-82
2024/02/12 06:43:51;;;;;;;2.65;2.45;;;15.50;71.50;;;;;;5014400;28;20081;-80
2024/02/12 06:46:16;;;;;;;2.25;2.15;;;15.50;71.40;;;;;;5003483;28;20125;-80
2024/02/12 06:48:42;;;;;;;2.30;2.20;;;15.50;71.40;;;;;;5003355;28;20544;-78
2024/02/12 06:51:10;;;;;;;2.60;2.40;;;15.50;71.50;;;;;;5004486;28;20038;-78
2024/02/12 06:53:36;;;;;;;2.30;2.10;;;15.50;71.40;;;;;;5016121;28;20591;-78
2024/02/12 06:56:07;;;;;;;2.40;2.20;;;15.50;71.50;;;;;;4999349;28;20039;-79
2024/02/12 06:58:32;;;;;;;2.20;2.10;;;15.50;71.60;;;;;;5001930;28;20054;-81
2024/02/12 07:00:58;;;;;;;2.60;2.40;;;15.50;71.50;;;;;;5013606;28;20046;-82
2024/02/12 07:03:23;;;;;;;3.30;2.33;;;15.50;71.50;;;;;;5002063;28;20096;-85
2024/02/12 07:05:52;;;;;;;2.00;1.90;;;15.50;71.80;;;;;;5000578;28;20050;-84
2024/02/12 07:08:18;;;;;;;2.30;2.20;;;15.50;71.40;;;;;;5005955;28;20068;-83
2024/02/12 07:10:48;;;;;;;3.15;1.92;;;15.50;71.70;;;;;;5002610;28;20045;-83
2024/02/12 07:13:14;;;;;;;2.30;2.10;;;15.50;71.70;;;;;;4989530;28;20389;-83
2024/02/12 07:15:41;;;;;;;2.03;1.92;;;15.50;71.80;;;;;;5004753;28;20565;-84
2024/02/12 07:18:06;;;;;;;2.00;1.90;;;15.50;71.80;;;;;;5002152;28;20048;-85
2024/02/12 07:20:32;;;;;;;2.55;1.95;;;15.50;72.10;;;;;;5001066;28;20038;-84
2024/02/12 07:22:59;;;;;;;1.92;1.83;;;15.50;71.90;;;;;;5003933;28;20109;-83
2024/02/12 07:25:24;;;;;;;1.88;1.70;;;15.50;71.90;;;;;;5017089;28;20034;-83
2024/02/12 07:27:50;;;;;;;2.60;1.80;;;15.50;72.40;;;;;;4986972;28;20052;-83
2024/02/12 07:30:16;;;;;;;2.85;1.80;;;15.50;72.30;;;;;;4970157;28;20057;-83
2024/02/12 07:32:45;;;;;;;2.10;2.00;;;15.50;72.40;;;;;;4721884;28;10001156;-84
2024/02/12 07:35:11;;;;;;;3.03;2.10;;;15.60;72.30;;;;;;4999607;28;20297;-84
2024/02/12 07:37:41;;;;;;;2.17;2.00;;;15.60;72.70;;;;;;5011532;28;20067;-84
2024/02/12 07:40:10;;;;;;;1.83;1.73;;;15.60;72.50;;;;;;5002204;28;20534;-84
2024/02/12 07:42:38;;;;;;;1.80;1.70;;;15.50;72.30;;;;;;5000082;28;20046;-83
2024/02/12 07:45:07;;;;;;;3.55;1.98;;;15.50;72.30;;;;;;4998167;28;20125;-83
2024/02/12 07:47:34;;;;;;;2.17;2.08;;;15.60;72.40;;;;;;5000531;28;20057;-83
2024/02/12 07:50:01;;;;;;;2.17;2.08;;;15.60;73.20;;;;;;5014518;28;20049;-86
2024/02/12 07:52:27;;;;;;;1.98;1.85;;;15.60;72.70;;;;;;5014237;28;20100;-86
2024/02/12 07:54:54;;;;;;;2.25;1.73;;;15.60;72.50;;;;;;5016191;28;20104;-84
2024/02/12 07:57:21;;;;;;;1.80;1.70;;;15.60;72.20;;;;;;5017017;28;20077;-84
2024/02/12 07:59:47;;;;;;;1.40;1.30;;;15.60;72.60;;;;;;5013972;28;20042;-85
2024/02/12 08:02:12;;;;;;;1.60;1.50;;;15.60;74.90;;;;;;4984183;28;20045;-84
2024/02/12 08:04:38;;;;;;;1.67;1.58;;;15.60;75.70;;;;;;5015549;28;20460;-84
2024/02/12 08:07:04;;;;;;;5.25;1.40;;;15.50;76.30;;;;;;4971197;28;20050;-84
2024/02/12 08:09:33;;;;;;;2.20;1.20;;;15.50;76.30;;;;;;4987496;28;20076;-84
2024/02/12 08:11:59;;;;;;;1.42;1.33;;;15.50;76.70;;;;;;5015213;28;20041;-84
2024/02/12 08:14:26;;;;;;;1.33;1.20;;;15.50;75.70;;;;;;5011052;28;20046;-84
2024/02/12 08:16:51;;;;;;;1.60;1.50;;;15.50;75.90;;;;;;5010398;28;20039;-84
2024/02/12 08:19:18;;;;;;;1.60;1.50;;;15.50;74.40;;;;;;5001909;28;20044;-84
2024/02/12 08:21:45;;;;;;;1.60;1.50;;;15.50;76.00;;;;;;5017811;28;20053;-83
2024/02/12 08:24:13;;;;;;;1.77;1.55;;;15.60;75.20;;;;;;5004159;28;20138;-84
2024/02/12 08:26:41;;;;;;;1.58;1.48;;;15.50;74.90;;;;;;5001029;28;20041;-84
2024/02/12 08:29:06;;;;;;;1.75;1.50;;;15.50;76.30;;;;;;4999560;28;20125;-84
2024/02/12 08:31:32;;;;;;;1.70;1.60;;;15.60;76.60;;;;;;4999881;28;20149;-84
2024/02/12 08:33:59;;;;;;;1.65;1.55;;;15.60;75.40;;;;;;4999130;28;20865;-84
2024/02/12 08:36:24;;;;;;;1.60;1.50;;;15.60;75.20;;;;;;4987870;28;20125;-84
2024/02/12 08:38:50;;;;;;;1.80;1.70;;;15.60;74.80;;;;;;5018125;28;20492;-84
2024/02/12 08:41:22;;;;;;;1.80;1.70;;;15.60;74.90;;;;;;5003068;28;20034;-84
2024/02/12 08:43:56;;;;;;;1.20;1.10;;;15.60;75.70;;;;;;5002826;28;20538;-84
2024/02/12 08:46:22;;;;;;;1.53;1.43;;;15.60;76.10;;;;;;4996685;28;20066;-84
2024/02/12 08:48:48;;;;;;;2.80;1.88;;;15.60;75.30;;;;;;4996690;28;20065;-84
2024/02/12 08:51:15;;;;;;;1.80;1.70;;;15.60;76.40;;;;;;5002204;28;20172;-84
2024/02/12 08:53:43;;;;;;;1.60;1.50;;;15.60;75.70;;;;;;5002291;28;20042;-84
2024/02/12 08:56:17;;;;;;;2.08;1.40;;;15.60;76.10;;;;;;5002221;28;20092;-84
2024/02/12 08:58:43;;;;;;;1.58;1.40;;;15.60;75.10;;;;;;5017204;28;20052;-83
2024/02/12 09:01:10;;;;;;;1.55;1.45;;;15.60;75.30;;;;;;5013374;28;20038;-84
2024/02/12 09:03:40;;;;;;;1.98;1.85;;;15.60;76.00;;;;;;5018815;28;20038;-84
2024/02/12 09:06:11;;;;;;;1.40;1.30;;;15.60;76.10;;;;;;5010911;28;20100;-84
2024/02/12 09:08:39;;;;;;;1.50;1.40;;;15.60;76.40;;;;;;5000457;28;20504;-83
2024/02/12 09:11:05;;;;;;;1.13;1.10;;;15.60;76.50;;;;;;5012154;28;20041;-83
2024/02/12 09:13:31;;;;;;;1.35;1.25;;;15.60;77.00;;;;;;4996683;28;20574;-84
2024/02/12 09:15:57;;;;;;;1.77;1.38;;;15.60;76.50;;;;;;4999154;28;20050;-84
2024/02/12 09:18:26;;;;;;;1.40;1.30;;;15.60;77.00;;;;;;5002424;28;20042;-84
2024/02/12 09:20:56;;;;;;;1.38;1.27;;;15.60;76.30;;;;;;5001636;28;20515;-84
2024/02/12 09:23:22;;;;;;;1.73;1.63;;;15.60;76.70;;;;;;5004117;28;20065;-84
2024/02/12 09:25:49;;;;;;;1.17;1.08;;;15.60;76.70;;;;;;5002143;28;20072;-83
2024/02/12 09:28:16;;;;;;;1.13;1.08;;;15.60;76.60;;;;;;4983972;28;20054;-83
2024/02/12 09:30:45;;;;;;;1.38;1.27;;;15.60;76.50;;;;;;4988370;28;20073;-84
2024/02/12 09:33:14;;;;;;;1.63;1.25;;;15.60;76.60;;;;;;5001384;28;20546;-84
2024/02/12 09:35:44;;;;;;;1.50;1.40;;;15.60;76.20;;;;;;4999303;28;20044;-83
2024/02/12 09:38:10;;;;;;;1.10;1.00;;;15.60;76.10;;;;;;4987378;28;20045;-84
2024/02/12 09:40:36;;;;;;;1.15;1.05;;;15.60;76.00;;;;;;5013556;28;20050;-84
2024/02/12 09:43:01;;;;;;;1.20;1.02;;;15.70;75.90;;;;;;4977717;28;20034;-84
2024/02/12 09:45:31;;;;;;;1.33;1.23;;;15.60;76.00;;;;;;4986109;28;20042;-84
2024/02/12 09:47:58;;;;;;;7.95;1.00;;;15.60;75.90;;;;;;4984007;28;20049;-84
2024/02/12 09:50:26;;;;;;;1.35;1.25;;;15.60;75.70;;;;;;5015719;28;20046;-84
2024/02/12 09:52:56;;;;;;;1.17;1.10;;;15.60;75.70;;;;;;4998370;28;20045;-84
2024/02/12 09:55:21;;;;;;;1.25;1.15;;;15.70;75.70;;;;;;4965299;28;20062;-84
2024/02/12 09:57:47;;;;;;;1.42;1.00;;;15.70;75.70;;;;;;5000544;28;20073;-84
2024/02/12 10:00:13;;;;;;;1.05;0.93;;;15.70;75.30;;;;;;4999528;28;20054;-84
2024/02/12 10:02:40;;;;;;;0.90;0.90;;;15.70;74.80;;;;;;5018515;28;20049;-84
2024/02/12 10:05:10;;;;;;;1.15;1.05;;;15.80;74.50;;;;;;5003386;28;20034;-84
2024/02/12 10:07:39;;;;;;;1.05;0.85;;;15.80;74.70;;;;;;4999138;28;20030;-84
2024/02/12 10:10:08;;;;;;;1.27;1.17;;;15.90;74.20;;;;;;5004096;28;20046;-84
2024/02/12 10:12:37;;;;;;;1.42;1.33;;;16.00;73.70;;;;;;5021136;28;20061;-84
2024/02/12 10:15:04;;;;;;;0.88;0.88;;;16.00;74.20;;;;;;5003891;28;20053;-83
2024/02/12 10:17:29;;;;;;;1.00;1.00;;;16.00;74.40;;;;;;5007278;28;20054;-84
2024/02/12 10:19:55;;;;;;;1.38;0.95;;;16.10;74.40;;;;;;5015173;28;20519;-84
2024/02/12 10:22:25;;;;;;;5.28;1.10;;;16.10;74.20;;;;;;5019921;28;20045;-85
2024/02/12 10:24:51;;;;;;;1.05;1.05;;;16.10;73.80;;;;;;5003971;28;20037;-84
2024/02/12 10:27:22;;;;;;;1.00;1.00;;;16.10;73.30;;;;;;5001149;28;20049;-84
2024/02/12 10:29:58;;;;;;;1.35;1.02;;;16.20;73.10;;;;;;5004937;28;20132;-83
2024/02/12 10:32:24;;;;;;;1.95;1.13;;;16.20;72.80;;;;;;5019124;28;20054;-83
2024/02/12 10:34:55;;;;;;;0.95;0.95;;;16.30;72.70;;;;;;5003493;28;20124;-83
2024/02/12 10:37:24;;;;;;;1.38;1.27;;;16.30;72.70;;;;;;4985594;28;20049;-83
2024/02/12 10:39:51;;;;;;;1.20;1.10;;;16.30;72.60;;;;;;5018614;28;20034;-83
2024/02/12 10:42:17;;;;;;;3.22;1.17;;;16.30;72.60;;;;;;5003139;28;20053;-84
2024/02/12 10:44:43;;;;;;;1.27;1.15;;;16.30;72.50;;;;;;5003565;28;20054;-84
2024/02/12 10:47:10;;;;;;;1.38;0.90;;;16.30;72.40;;;;;;4998889;28;20038;-83
2024/02/12 10:49:38;;;;;;;1.20;1.08;;;16.40;72.40;;;;;;5018835;28;20054;-83
2024/02/12 10:52:04;;;;;;;0.88;0.88;;;16.30;72.30;;;;;;5004462;28;20054;-83
2024/02/12 10:54:30;;;;;;;1.02;0.98;;;16.40;72.10;;;;;;4992703;28;20044;-84
2024/02/12 10:56:55;;;;;;;0.50;0.50;;;16.40;72.00;;;;;;4987224;28;20065;-84
2024/02/12 10:59:21;;;;;;;0.85;0.85;;;16.50;71.90;;;;;;5003345;28;20046;-84
2024/02/12 11:01:49;;;;;;;0.95;0.95;;;16.50;71.90;;;;;;5015640;28;20045;-83
2024/02/12 11:04:15;;;;;;;1.20;0.93;;;16.50;71.90;;;;;;5001328;28;20056;-84
2024/02/12 11:06:41;;;;;;;0.80;0.80;;;16.50;71.90;;;;;;4985427;28;20101;-83
2024/02/12 11:09:10;;;;;;;0.95;0.70;;;16.50;71.70;;;;;;4987633;28;20082;-83
2024/02/12 11:11:43;;;;;;;0.95;0.65;;;16.50;71.60;;;;;;4973016;28;20034;-84
2024/02/12 11:14:13;;;;;;;0.70;0.70;;;16.50;71.60;;;;;;5004964;28;20514;-84
2024/02/12 11:16:39;;;;;;;0.60;0.60;;;16.50;71.60;;;;;;4972187;28;20046;-83
2024/02/12 11:19:07;;;;;;;0.70;0.70;;;16.50;71.60;;;;;;5004456;28;20096;-83
2024/02/12 11:21:38;;;;;;;0.90;0.90;;;16.50;71.70;;;;;;4997478;28;20038;-84
2024/02/12 11:24:04;;;;;;;0.60;0.52;;;16.50;71.70;;;;;;5003291;28;20520;-83
2024/02/12 11:26:40;;;;;;;0.80;0.80;;;16.50;71.80;;;;;;4998906;28;20038;-83
2024/02/12 11:29:06;;;;;;;0.68;0.68;;;16.50;71.90;;;;;;5011812;28;20109;-83
2024/02/12 11:31:39;;;;;;;0.80;0.77;;;16.40;71.90;;;;;;5004290;28;20153;-83
2024/02/12 11:34:14;;;;;;;0.80;0.80;;;16.40;71.90;;;;;;4982897;28;20046;-84
2024/02/12 11:36:43;;;;;;;1.38;0.75;;;16.40;71.90;;;;;;5001536;28;20041;-83
2024/02/12 11:39:08;;;;;;;0.70;0.70;;;16.40;72.10;;;;;;4998376;28;20045;-83
2024/02/12 11:41:37;;;;;;;0.60;0.60;;;16.40;72.00;;;;;;5015620;28;20665;-82
2024/02/12 11:44:06;;;;;;;0.60;0.60;;;16.40;71.90;;;;;;4999804;28;20432;-84
2024/02/12 11:46:38;;;;;;;0.90;0.90;;;16.40;71.90;;;;;;5012760;28;20075;-84
2024/02/12 11:49:06;;;;;;;0.70;0.70;;;16.50;71.90;;;;;;5000475;28;20062;-83
2024/02/12 11:51:36;;;;;;;0.90;0.90;;;16.50;71.80;;;;;;4969625;28;20092;-83
2024/02/12 11:54:03;;;;;;;0.57;0.52;;;16.60;71.70;;;;;;5001588;28;20041;-82
2024/02/12 11:56:29;;;;;;;1.23;0.80;;;16.60;71.70;;;;;;5002778;28;20038;-83
2024/02/12 11:58:57;;;;;;;0.82;0.80;;;16.60;71.60;;;;;;5005041;28;20112;-83
2024/02/12 12:01:27;;;;;;;0.98;0.90;;;16.60;71.60;;;;;;5005278;28;20422;-83
2024/02/12 12:03:53;;;;;;;0.60;0.60;;;16.60;71.50;;;;;;5015981;28;20234;-82
2024/02/12 12:06:21;;;;;;;0.63;0.63;;;16.50;71.60;;;;;;5013793;28;20065;-83
2024/02/12 12:08:50;;;;;;;0.50;0.47;;;16.50;71.60;;;;;;4986603;28;20709;-83
2024/02/12 12:11:26;;;;;;;0.73;0.73;;;16.50;71.60;;;;;;4996437;28;20042;-83
2024/02/12 12:13:58;;;;;;;1.35;0.75;;;16.50;71.40;;;;;;4966036;28;20049;-84
2024/02/12 12:16:23;;;;;;;5.57;1.58;;;16.50;73.60;;;;;;5016317;28;20081;-85
2024/02/12 12:18:49;;;;;;;3.67;1.35;;;16.50;73.40;;;;;;5016602;28;20569;-84
2024/02/12 12:21:18;;;;;;;1.17;0.90;;;16.50;73.80;;;;;;4648329;28;10000490;-85
2024/02/12 12:23:44;;;;;;;3.78;0.70;;;16.50;72.50;;;;;;5011192;28;20356;-84
2024/02/12 12:26:11;;;;;;;1.17;1.08;;;16.60;72.60;;;;;;4997683;28;20573;-84
2024/02/12 12:28:37;;;;;;;1.65;0.90;;;16.60;72.90;;;;;;5011228;28;20073;-84
2024/02/12 12:31:04;;;;;;;2.30;0.80;;;16.60;72.00;;;;;;5010165;28;20042;-84
2024/02/12 12:33:33;;;;;;;1.00;0.80;;;16.60;71.70;;;;;;4993703;28;20928;-84
2024/02/12 12:35:59;;;;;;;0.50;0.43;;;16.60;71.70;;;;;;4997247;28;20080;-83
2024/02/12 12:38:24;;;;;;;0.98;0.57;;;16.60;71.90;;;;;;4975602;28;20516;-84
2024/02/12 12:40:50;;;;;;;1.52;0.88;;;16.60;71.70;;;;;;4996529;28;20048;-78
2024/02/12 12:43:18;;;;;;;0.77;0.77;;;16.70;71.70;;;;;;4993790;28;20057;-79
2024/02/12 12:45:45;;;;;;;3.65;1.10;;;16.60;71.80;;;;;;5013726;28;20041;-79
2024/02/12 12:48:11;;;;;;;1.25;1.15;;;16.70;72.30;;;;;;4999361;28;20056;-79
2024/02/12 12:50:38;;;;;;;1.88;0.75;;;16.60;72.30;;;;;;5016554;28;20046;-79
2024/02/12 12:53:04;;;;;;;2.53;0.90;;;16.60;72.30;;;;;;5002203;28;20758;-79
2024/02/12 12:55:29;;;;;;;0.98;0.77;;;16.60;72.20;;;;;;5018437;28;20046;-79
2024/02/12 12:57:55;;;;;;;0.80;0.70;;;16.60;72.00;;;;;;5004893;28;22173;-79